Time;durP1;ratioP1;P1;durP2;ratioP2;P2;SDS_P1;SDS_P2;PMS_P1;PMS_P2;Temp;Humidity;BMP_temperature;BMP_pressure;BME280_temperature;BME280_humidity;BME280_pressure;Samples;Min_cycle;Max_cycle;Signal;HPM_P1;HPM_P2
2023/05/04 00:01:10;;;;;;;5.50;3.30;;;9.40;1.00;;;;;;6285882;22;20411;-85
2023/05/04 00:03:37;;;;;;;6.37;3.83;;;9.30;1.00;;;;;;6285755;22;20412;-85
2023/05/04 00:06:04;;;;;;;6.03;3.90;;;9.20;1.00;;;;;;6285438;22;20419;-86
2023/05/04 00:08:32;;;;;;;2.90;2.70;;;9.20;1.00;;;;;;6285752;22;20944;-86
2023/05/04 00:10:59;;;;;;;8.87;3.90;;;9.20;1.00;;;;;;6285964;22;20406;-86
2023/05/04 00:13:26;;;;;;;6.87;3.13;;;9.20;1.00;;;;;;6287351;22;20838;-86
2023/05/04 00:15:52;;;;;;;4.00;3.07;;;9.10;1.00;;;;;;6288429;22;20719;-86
2023/05/04 00:18:19;;;;;;;6.13;3.73;;;9.00;1.00;;;;;;6287783;22;20445;-86
2023/05/04 00:20:46;;;;;;;10.63;4.30;;;9.00;1.00;;;;;;6286094;22;20391;-86
2023/05/04 00:23:13;;;;;;;5.70;3.47;;;9.00;1.00;;;;;;6285881;22;20429;-86
2023/05/04 00:25:41;;;;;;;5.97;3.47;;;8.90;1.00;;;;;;6286474;22;20416;-86
2023/05/04 00:28:08;;;;;;;4.27;3.60;;;8.90;1.00;;;;;;6285491;22;20443;-86
2023/05/04 00:30:35;;;;;;;6.53;3.77;;;8.90;1.00;;;;;;6283969;22;20476;-86
2023/05/04 00:33:01;;;;;;;6.50;3.33;;;8.90;1.00;;;;;;6284565;22;20469;-87
2023/05/04 00:35:30;;;;;;;7.23;3.70;;;;;;;;;;6284237;22;20405;-86
2023/05/04 00:37:57;;;;;;;8.10;3.60;;;8.90;1.00;;;;;;6289143;22;20429;-85
2023/05/04 00:40:24;;;;;;;3.90;3.50;;;8.80;1.00;;;;;;6302498;22;20402;-84
2023/05/04 00:42:52;;;;;;;8.47;3.87;;;8.80;1.00;;;;;;6305126;22;20393;-85
2023/05/04 00:45:19;;;;;;;5.47;3.40;;;8.70;1.00;;;;;;6302034;22;20678;-85
2023/05/04 00:47:46;;;;;;;5.40;4.17;;;8.70;1.00;;;;;;6299581;22;20421;-85
2023/05/04 00:50:13;;;;;;;8.57;3.37;;;8.70;1.00;;;;;;6292205;22;20408;-86
2023/05/04 00:52:41;;;;;;;7.03;3.63;;;8.70;1.00;;;;;;6286010;22;20500;-86
2023/05/04 00:55:09;;;;;;;7.83;4.23;;;8.60;1.00;;;;;;6289191;22;20379;-85
2023/05/04 00:57:36;;;;;;;7.50;4.40;;;8.60;1.00;;;;;;6296559;22;20459;-85
2023/05/04 01:00:07;;;;;;;12.93;3.60;;;8.60;1.00;;;;;;6298944;22;20487;-87
2023/05/04 01:02:34;;;;;;;6.27;3.90;;;9.00;99.90;;;;;;6303708;22;20389;-84
2023/05/04 01:05:01;;;;;;;6.67;3.83;;;8.40;99.90;;;;;;6306384;22;20402;-85
2023/05/04 01:07:37;;;;;;;9.03;3.83;;;8.60;99.90;;;;;;6300108;22;20415;-85
2023/05/04 01:10:10;;;;;;;8.20;4.17;;;8.50;1.00;;;;;;6290564;22;20457;-86
2023/05/04 01:12:42;;;;;;;4.97;3.20;;;8.50;1.00;;;;;;6295442;22;20407;-84
2023/05/04 01:15:12;;;;;;;7.67;3.93;;;8.40;1.00;;;;;;6305239;22;20413;-86
2023/05/04 01:17:39;;;;;;;5.30;3.40;;;8.40;1.00;;;;;;6306132;22;20407;-86
2023/05/04 01:20:08;;;;;;;10.70;4.10;;;8.40;1.00;;;;;;6306015;22;20356;-85
2023/05/04 01:22:36;;;;;;;8.77;3.40;;;8.40;1.00;;;;;;6292050;22;20413;-85
2023/05/04 01:25:04;;;;;;;6.40;3.50;;;8.40;1.00;;;;;;6299584;22;20393;-84
2023/05/04 01:27:40;;;;;;;9.13;4.73;;;8.40;1.00;;;;;;6303626;22;20428;-84
2023/05/04 01:30:13;;;;;;;5.70;4.70;;;8.30;1.00;;;;;;6292731;22;20396;-84
2023/05/04 01:32:42;;;;;;;5.93;3.93;;;8.30;1.00;;;;;;6293927;22;20420;-84
2023/05/04 01:35:11;;;;;;;10.37;3.90;;;8.30;1.00;;;;;;6295838;22;20408;-85
2023/05/04 01:37:39;;;;;;;5.80;4.53;;;8.20;1.00;;;;;;6285481;22;20938;-85
2023/05/04 01:40:07;;;;;;;8.07;3.40;;;8.20;1.00;;;;;;6285017;22;20435;-85
2023/05/04 01:42:34;;;;;;;7.53;4.57;;;8.10;1.00;;;;;;6284917;22;20722;-85
2023/05/04 01:45:02;;;;;;;5.50;3.53;;;8.20;15.90;;;;;;6285958;22;20464;-85
2023/05/04 01:47:29;;;;;;;5.47;3.53;;;8.10;1.20;;;;;;6284968;22;20429;-85
2023/05/04 01:49:55;;;;;;;7.03;3.67;;;8.10;3.00;;;;;;6290486;22;20455;-85
2023/05/04 01:52:22;;;;;;;15.13;3.67;;;8.10;42.30;;;;;;6284580;22;20519;-85
2023/05/04 01:54:51;;;;;;;6.90;3.20;;;8.10;29.20;;;;;;6285736;22;20386;-85
2023/05/04 01:57:17;;;;;;;5.13;3.60;;;8.00;14.20;;;;;;6285083;22;20757;-85
2023/05/04 01:59:44;;;;;;;6.63;3.40;;;8.00;31.50;;;;;;6284612;22;20425;-85
2023/05/04 02:02:11;;;;;;;10.80;4.20;;;8.00;45.80;;;;;;6284879;22;20436;-85
2023/05/04 02:04:38;;;;;;;6.90;3.67;;;8.00;31.60;;;;;;6289093;22;20375;-85
2023/05/04 02:07:05;;;;;;;7.20;3.63;;;8.00;23.70;;;;;;6290553;22;20421;-84
2023/05/04 02:09:32;;;;;;;6.43;3.30;;;8.00;14.40;;;;;;6284308;22;20412;-84
2023/05/04 02:12:00;;;;;;;7.27;4.43;;;8.00;1.00;;;;;;6286646;22;20938;-84
2023/05/04 02:14:27;;;;;;;7.83;3.83;;;7.90;28.10;;;;;;6291866;22;20433;-84
2023/05/04 02:16:54;;;;;;;6.93;3.80;;;7.90;1.00;;;;;;6294054;22;20456;-84
2023/05/04 02:19:21;;;;;;;6.80;3.77;;;7.90;9.40;;;;;;6289503;22;20442;-85
2023/05/04 02:21:48;;;;;;;3.60;3.27;;;7.80;43.30;;;;;;6285787;22;20488;-85
2023/05/04 02:24:15;;;;;;;7.37;4.20;;;7.80;24.20;;;;;;6286138;22;20409;-85
2023/05/04 02:26:42;;;;;;;7.17;3.63;;;6.40;99.90;;;;;;6284780;22;20900;-85
2023/05/04 02:29:10;;;;;;;6.15;3.90;;;7.20;99.90;;;;;;6285613;22;20413;-85
2023/05/04 02:31:37;;;;;;;6.67;3.77;;;7.70;52.00;;;;;;6285318;22;20631;-85
2023/05/04 02:34:03;;;;;;;6.87;3.97;;;7.70;34.60;;;;;;6285007;22;20471;-86
2023/05/04 02:36:30;;;;;;;7.40;3.63;;;7.50;99.90;;;;;;6289736;22;20777;-86
2023/05/04 02:38:59;;;;;;;5.53;3.70;;;7.60;90.10;;;;;;6285486;22;20440;-85
2023/05/04 02:41:26;;;;;;;9.20;4.80;;;7.60;99.90;;;;;;6305258;22;20409;-85
2023/05/04 02:43:53;;;;;;;8.10;4.20;;;7.60;99.90;;;;;;6305477;22;20158;-84
2023/05/04 02:46:22;;;;;;;6.70;5.20;;;7.60;99.90;;;;;;6292405;22;20387;-86
2023/05/04 02:48:48;;;;;;;9.03;4.13;;;7.60;99.90;;;;;;6284728;22;20424;-86
2023/05/04 02:51:15;;;;;;;3.90;3.50;;;7.50;99.90;;;;;;6286513;22;20501;-85
2023/05/04 02:53:42;;;;;;;6.13;3.57;;;7.10;99.90;;;;;;6293083;22;20186;-84
2023/05/04 02:56:09;;;;;;;5.50;3.80;;;7.40;99.90;;;;;;6305469;22;20405;-84
2023/05/04 02:58:36;;;;;;;5.25;3.78;;;7.30;99.90;;;;;;6304719;22;20425;-84
2023/05/04 03:01:03;;;;;;;4.80;3.07;;;7.40;99.90;;;;;;6293248;22;20205;-86
2023/05/04 03:03:31;;;;;;;10.63;4.43;;;7.40;99.90;;;;;;6285142;22;20429;-85
2023/05/04 03:05:58;;;;;;;11.10;4.70;;;7.40;99.90;;;;;;6283528;22;20469;-85
2023/05/04 03:08:24;;;;;;;4.70;4.13;;;7.30;99.90;;;;;;6284534;22;20499;-85
2023/05/04 03:10:51;;;;;;;6.63;3.53;;;7.40;99.90;;;;;;6283703;22;20497;-85
2023/05/04 03:13:18;;;;;;;6.13;3.67;;;7.30;99.90;;;;;;6284188;22;20416;-85
2023/05/04 03:15:45;;;;;;;13.40;4.63;;;7.30;99.90;;;;;;6285271;22;20410;-85
2023/05/04 03:18:11;;;;;;;7.43;4.45;;;7.30;99.90;;;;;;6291480;22;20225;-85
2023/05/04 03:20:40;;;;;;;7.72;3.50;;;7.30;99.90;;;;;;6290758;22;20261;-85
2023/05/04 03:23:07;;;;;;;9.13;4.40;;;7.30;99.90;;;;;;6285066;22;20643;-85
2023/05/04 03:25:33;;;;;;;12.25;4.95;;;7.30;99.90;;;;;;6284266;22;20182;-86
2023/05/04 03:28:00;;;;;;;7.28;3.50;;;7.30;99.90;;;;;;6288419;22;20240;-85
2023/05/04 03:30:27;;;;;;;4.93;3.80;;;7.40;99.90;;;;;;6288787;22;20212;-85
2023/05/04 03:32:54;;;;;;;8.38;4.03;;;7.30;99.90;;;;;;6286524;22;20233;-85
2023/05/04 03:35:21;;;;;;;7.90;3.83;;;7.30;99.90;;;;;;6287225;22;20186;-84
2023/05/04 03:37:49;;;;;;;10.73;4.90;;;7.20;99.90;;;;;;6282483;22;20460;-83
2023/05/04 03:40:21;;;;;;;4.50;3.80;;;7.20;99.90;;;;;;6284081;22;20467;-85
2023/05/04 03:42:47;;;;;;;7.93;4.15;;;7.20;99.90;;;;;;6287286;22;20185;-85
2023/05/04 03:45:14;;;;;;;7.38;3.85;;;7.20;99.90;;;;;;6290198;22;20205;-86
2023/05/04 03:47:41;;;;;;;4.30;3.40;;;7.10;99.90;;;;;;6290972;22;20229;-85
2023/05/04 03:50:11;;;;;;;7.80;3.40;;;7.10;99.90;;;;;;6286885;22;20447;-85
2023/05/04 03:52:38;;;;;;;11.05;7.30;;;7.10;99.90;;;;;;6286366;22;20412;-85
2023/05/04 03:55:07;;;;;;;9.38;4.22;;;7.10;99.90;;;;;;6285572;22;20186;-84
2023/05/04 03:57:34;;;;;;;10.23;3.55;;;7.10;99.90;;;;;;6286795;22;20544;-85
2023/05/04 04:00:01;;;;;;;6.80;4.78;;;7.10;99.90;;;;;;6286346;22;20266;-85
2023/05/04 04:02:28;;;;;;;7.45;4.28;;;7.10;99.90;;;;;;6296643;22;20178;-84
2023/05/04 04:04:54;;;;;;;6.03;3.90;;;7.10;99.90;;;;;;6302337;22;20166;-84
2023/05/04 04:07:21;;;;;;;5.40;3.17;;;7.10;99.90;;;;;;6297798;22;20412;-85
2023/05/04 04:09:48;;;;;;;5.93;3.90;;;7.10;99.90;;;;;;6295056;22;20416;-84
2023/05/04 04:12:19;;;;;;;4.47;4.03;;;7.10;99.90;;;;;;6297887;22;20178;-84
2023/05/04 04:14:46;;;;;;;9.18;4.35;;;7.10;99.90;;;;;;6297512;22;20447;-85
2023/05/04 04:17:13;;;;;;;12.18;5.13;;;7.20;1.00;;;;;;6293620;22;20205;-85
2023/05/04 04:19:39;;;;;;;9.70;4.35;;;7.00;99.90;;;;;;6288376;22;20253;-85
2023/05/04 04:22:06;;;;;;;7.30;5.00;;;7.00;99.90;;;;;;6286643;22;20205;-85
2023/05/04 04:24:33;;;;;;;10.60;4.78;;;7.10;99.90;;;;;;6286884;22;20508;-86
2023/05/04 04:27:00;;;;;;;11.20;6.80;;;7.10;99.90;;;;;;6286718;22;20229;-85
2023/05/04 04:29:28;;;;;;;11.43;4.78;;;7.10;99.90;;;;;;6289246;22;20452;-87
2023/05/04 04:31:55;;;;;;;8.27;4.20;;;;;;;;;;6291936;22;20178;-88
2023/05/04 04:34:23;;;;;;;5.75;3.88;;;7.10;99.90;;;;;;6292126;22;20411;-87
2023/05/04 04:36:50;;;;;;;9.40;5.10;;;7.10;99.90;;;;;;6291501;22;20178;-87
2023/05/04 04:39:16;;;;;;;6.78;4.20;;;7.00;99.90;;;;;;6290530;22;20400;-88
2023/05/04 04:41:43;;;;;;;11.80;4.18;;;7.00;99.90;;;;;;6299848;22;20162;-83
2023/05/04 04:44:11;;;;;;;13.60;4.25;;;7.00;99.90;;;;;;6304759;22;20186;-87
2023/05/04 04:46:39;;;;;;;7.57;4.17;;;7.10;99.90;;;;;;6298607;22;20186;-87
2023/05/04 04:49:06;;;;;;;9.40;4.80;;;7.20;99.90;;;;;;6297037;22;20480;-89
2023/05/04 04:51:33;;;;;;;8.00;4.22;;;7.20;99.90;;;;;;6292155;22;20375;-90
2023/05/04 04:54:00;;;;;;;8.10;4.60;;;7.30;99.90;;;;;;6290532;22;20198;-88
2023/05/04 04:56:27;;;;;;;7.50;5.37;;;7.30;99.90;;;;;;6289141;22;20429;-88
2023/05/04 04:58:54;;;;;;;6.38;5.78;;;7.30;99.90;;;;;;6289511;22;20463;-87
2023/05/04 05:01:21;;;;;;;8.00;4.73;;;7.40;99.90;;;;;;6289181;22;20178;-87
2023/05/04 05:03:49;;;;;;;7.23;4.10;;;7.40;95.00;;;;;;6287579;22;20480;-87
2023/05/04 05:06:16;;;;;;;9.90;4.20;;;7.60;99.90;;;;;;6288431;22;20401;-88
2023/05/04 05:08:43;;;;;;;5.80;4.35;;;7.40;26.00;;;;;;6288588;22;20399;-86
2023/05/04 05:11:11;;;;;;;5.10;4.60;;;7.40;66.30;;;;;;6289125;22;20171;-89
2023/05/04 05:13:38;;;;;;;9.30;4.93;;;7.60;6.30;;;;;;6287837;22;20418;-88
2023/05/04 05:16:06;;;;;;;10.10;4.93;;;7.70;1.00;;;;;;6286268;22;20372;-87
2023/05/04 05:18:33;;;;;;;8.03;4.43;;;7.70;1.00;;;;;;6289664;22;20420;-86
2023/05/04 05:21:01;;;;;;;6.10;4.17;;;7.70;1.00;;;;;;6292456;22;20745;-88
2023/05/04 05:23:28;;;;;;;7.37;3.93;;;7.80;99.90;;;;;;6290135;22;20465;-87
2023/05/04 05:25:55;;;;;;;6.80;4.63;;;7.80;99.90;;;;;;6291262;22;20380;-88
2023/05/04 05:28:22;;;;;;;7.47;4.77;;;7.80;1.00;;;;;;6293669;22;20447;-88
2023/05/04 05:30:50;;;;;;;8.10;4.30;;;7.90;1.00;;;;;;6290361;22;20390;-88
2023/05/04 05:33:17;;;;;;;8.03;4.27;;;7.90;1.00;;;;;;6291792;22;20473;-87
2023/05/04 05:35:44;;;;;;;7.97;5.20;;;7.90;1.00;;;;;;6292108;22;20390;-86
2023/05/04 05:38:14;;;;;;;12.40;4.77;;;8.00;1.00;;;;;;6293376;22;20428;-88
2023/05/04 05:40:41;;;;;;;8.13;4.90;;;8.00;1.00;;;;;;6292233;22;20390;-87
2023/05/04 05:43:08;;;;;;;11.70;4.17;;;7.90;99.90;;;;;;6292082;22;20379;-87
2023/05/04 05:45:35;;;;;;;9.63;5.17;;;8.20;1.00;;;;;;6291314;22;20387;-88
2023/05/04 05:48:02;;;;;;;8.83;5.20;;;8.30;1.00;;;;;;6291530;22;20456;-89
2023/05/04 05:50:29;;;;;;;8.10;3.80;;;8.40;1.00;;;;;;6290214;22;20431;-89
2023/05/04 05:52:56;;;;;;;13.27;6.80;;;8.70;1.00;;;;;;6288850;22;20751;-88
2023/05/04 05:55:30;;;;;;;13.30;5.03;;;8.60;1.00;;;;;;6290726;22;20393;-88
2023/05/04 05:57:57;;;;;;;7.80;5.10;;;8.70;27.80;;;;;;6291047;22;20462;-89
2023/05/04 06:00:24;;;;;;;6.87;5.30;;;8.70;1.00;;;;;;6291474;22;20408;-89
2023/05/04 06:02:52;;;;;;;9.43;4.90;;;8.80;1.00;;;;;;6290664;22;20408;-89
2023/05/04 06:05:19;;;;;;;9.63;5.07;;;8.90;1.00;;;;;;6291082;22;20515;-89
2023/05/04 06:07:45;;;;;;;11.00;5.87;;;8.90;1.00;;;;;;6294935;22;20428;-86
2023/05/04 06:10:12;;;;;;;7.10;5.60;;;9.00;1.00;;;;;;6300018;22;20398;-87
2023/05/04 06:12:40;;;;;;;8.97;5.63;;;9.10;1.00;;;;;;6300087;22;20389;-87
2023/05/04 06:15:09;;;;;;;8.17;5.83;;;9.20;1.00;;;;;;6298668;22;20441;-88
2023/05/04 06:17:36;;;;;;;11.90;5.50;;;9.70;99.90;;;;;;6296493;22;20453;-88
2023/05/04 06:20:03;;;;;;;9.10;5.47;;;9.60;1.00;;;;;;6299772;22;20405;-86
2023/05/04 06:22:30;;;;;;;13.73;5.90;;;9.60;1.00;;;;;;6290450;22;20401;-87
2023/05/04 06:24:57;;;;;;;8.43;4.77;;;9.60;1.00;;;;;;6286853;22;20400;-88
2023/05/04 06:27:24;;;;;;;8.80;5.87;;;9.60;1.00;;;;;;6287295;22;20805;-88
2023/05/04 06:29:52;;;;;;;10.20;5.70;;;9.70;1.00;;;;;;6286492;22;20396;-87
2023/05/04 06:32:19;;;;;;;9.60;6.33;;;9.80;1.00;;;;;;6288903;22;20416;-88
2023/05/04 06:34:46;;;;;;;7.77;5.37;;;10.00;1.00;;;;;;6290569;22;20523;-87
2023/05/04 06:37:14;;;;;;;8.43;5.67;;;10.00;1.00;;;;;;6295663;22;20417;-87
2023/05/04 06:39:40;;;;;;;9.03;5.20;;;10.10;1.00;;;;;;6305308;22;20424;-86
2023/05/04 06:42:07;;;;;;;15.43;9.37;;;10.30;1.00;;;;;;6303539;22;20412;-87
2023/05/04 06:44:36;;;;;;;12.20;6.33;;;10.20;1.00;;;;;;6289827;22;20424;-87
2023/05/04 06:47:06;;;;;;;10.13;6.27;;;10.40;1.00;;;;;;6291530;22;20405;-85
2023/05/04 06:49:33;;;;;;;10.03;5.80;;;10.40;99.90;;;;;;6304223;22;20396;-87
2023/05/04 06:52:00;;;;;;;9.57;5.60;;;;;;;;;;6298853;22;20405;-87
2023/05/04 06:54:28;;;;;;;13.27;5.13;;;10.80;1.00;;;;;;6286954;22;20447;-87
2023/05/04 06:56:54;;;;;;;10.60;6.00;;;11.00;1.00;;;;;;6289202;22;20472;-87
2023/05/04 06:59:21;;;;;;;9.70;6.70;;;11.00;99.90;;;;;;6288465;22;20429;-87
2023/05/04 07:01:48;;;;;;;9.60;5.13;;;11.00;99.90;;;;;;6291341;22;20412;-88
2023/05/04 07:04:20;;;;;;;7.50;4.73;;;11.10;99.90;;;;;;6291526;22;20461;-87
2023/05/04 07:06:47;;;;;;;5.67;5.07;;;11.20;99.90;;;;;;6294628;22;20356;-88
2023/05/04 07:09:14;;;;;;;9.40;5.53;;;11.30;99.90;;;;;;6295117;22;20480;-87
2023/05/04 07:11:40;;;;;;;14.30;6.13;;;11.70;1.00;;;;;;6300785;22;20409;-87
2023/05/04 07:14:07;;;;;;;8.13;5.03;;;11.60;99.90;;;;;;6300185;22;20526;-89
2023/05/04 07:16:36;;;;;;;9.63;5.43;;;11.30;1.00;;;;;;6303303;22;20447;-86
2023/05/04 07:19:03;;;;;;;9.60;5.10;;;;;;;;;;6301210;22;20429;-88
2023/05/04 07:21:31;;;;;;;15.10;9.03;;;11.70;99.90;;;;;;6297181;22;20404;-90
2023/05/04 07:24:01;;;;;;;7.20;4.90;;;11.70;99.90;;;;;;6298141;22;20393;-89
2023/05/04 07:26:28;;;;;;;7.87;4.40;;;11.70;99.90;;;;;;6306674;22;20423;-86
2023/05/04 07:28:55;;;;;;;8.10;5.57;;;;;;;;;;6298702;22;20490;-88
2023/05/04 07:31:22;;;;;;;9.30;7.40;;;;;;;;;;6292661;22;20672;-88
2023/05/04 07:33:49;;;;;;;10.87;5.43;;;;;;;;;;6290643;22;20479;-89
2023/05/04 07:36:17;;;;;;;8.77;4.83;;;12.40;99.90;;;;;;6290862;22;20412;-87
2023/05/04 07:38:45;;;;;;;6.77;4.73;;;12.60;99.90;;;;;;6291685;22;20424;-87
2023/05/04 07:41:12;;;;;;;8.30;7.40;;;12.60;99.90;;;;;;6290948;22;20405;-87
2023/05/04 07:43:39;;;;;;;4.77;4.30;;;12.70;99.90;;;;;;6294524;22;20409;-88
2023/05/04 07:46:06;;;;;;;10.47;5.43;;;12.80;1.00;;;;;;6291849;22;20399;-87
2023/05/04 07:48:33;;;;;;;8.13;4.80;;;12.70;99.90;;;;;;6290509;22;20425;-88
2023/05/04 07:51:00;;;;;;;10.07;5.10;;;13.00;99.90;;;;;;6292737;22;20428;-87
2023/05/04 07:53:27;;;;;;;8.23;5.07;;;13.10;99.90;;;;;;6290634;22;20454;-87
2023/05/04 07:55:59;;;;;;;10.27;4.30;;;13.20;99.90;;;;;;6290397;22;20440;-88
2023/05/04 07:58:26;;;;;;;10.40;5.53;;;13.10;1.00;;;;;;6291815;22;20436;-88
2023/05/04 08:00:53;;;;;;;7.07;5.30;;;;;;;;;;6292093;22;20409;-87
2023/05/04 08:03:20;;;;;;;8.80;5.17;;;;;;;;;;6292337;22;20409;-88
2023/05/04 08:05:47;;;;;;;9.17;3.97;;;13.60;99.90;;;;;;6301494;22;20393;-87
2023/05/04 08:08:14;;;;;;;10.33;4.50;;;13.70;99.90;;;;;;6302447;22;20421;-87
2023/05/04 08:10:41;;;;;;;6.70;4.50;;;13.90;99.90;;;;;;6293467;22;20400;-87
2023/05/04 08:13:09;;;;;;;5.70;4.93;;;14.00;99.90;;;;;;6291895;22;20408;-86
2023/05/04 08:15:36;;;;;;;13.10;4.30;;;14.20;99.90;;;;;;6301868;22;20463;-86
2023/05/04 08:18:03;;;;;;;7.17;4.37;;;14.20;99.90;;;;;;6303191;22;20451;-87
2023/05/04 08:20:31;;;;;;;31.63;4.47;;;;;;;;;;6301690;22;20409;-87
2023/05/04 08:22:58;;;;;;;5.57;4.00;;;14.40;99.90;;;;;;6302337;22;20394;-86
2023/05/04 08:25:25;;;;;;;6.40;3.70;;;14.40;99.90;;;;;;6304725;22;20401;-88
2023/05/04 08:27:53;;;;;;;4.90;3.77;;;14.50;99.90;;;;;;6304800;22;20413;-87
2023/05/04 08:30:21;;;;;;;5.07;4.00;;;14.70;99.90;;;;;;6303099;22;20393;-88
2023/05/04 08:32:50;;;;;;;6.00;4.80;;;14.70;99.90;;;;;;6290750;22;20401;-90
2023/05/04 08:35:17;;;;;;;4.40;4.00;;;14.80;99.90;;;;;;6289327;22;20471;-87
2023/05/04 08:37:44;;;;;;;9.17;4.63;;;;;;;;;;6289529;22;20440;-86
2023/05/04 08:40:12;;;;;;;8.00;3.73;;;14.90;99.90;;;;;;6290308;22;20405;-87
2023/05/04 08:42:39;;;;;;;5.47;4.17;;;14.90;99.90;;;;;;6290268;22;20405;-87
2023/05/04 08:45:07;;;;;;;8.53;3.43;;;14.80;99.90;;;;;;6297833;22;20457;-87
2023/05/04 08:47:35;;;;;;;4.20;3.30;;;14.90;1.00;;;;;;6305302;22;20770;-86
2023/05/04 08:50:03;;;;;;;5.37;3.57;;;14.60;99.90;;;;;;6301578;22;20409;-88
2023/05/04 08:52:31;;;;;;;4.17;3.40;;;14.80;99.90;;;;;;6288977;22;20409;-87
2023/05/04 08:54:58;;;;;;;9.27;4.57;;;14.90;99.90;;;;;;6290520;22;20433;-87
2023/05/04 08:57:26;;;;;;;3.60;3.30;;;15.20;99.90;;;;;;6290801;22;20412;-87
2023/05/04 08:59:54;;;;;;;5.17;3.53;;;15.20;99.90;;;;;;6290954;22;20465;-87
2023/05/04 09:02:23;;;;;;;12.50;4.67;;;15.30;99.90;;;;;;6288797;22;20432;-88
2023/05/04 09:04:51;;;;;;;5.53;3.50;;;15.40;99.90;;;;;;6289205;22;20397;-88
2023/05/04 09:07:19;;;;;;;4.50;3.27;;;15.60;99.90;;;;;;6287898;22;20483;-88
2023/05/04 09:09:47;;;;;;;6.00;4.00;;;15.50;99.90;;;;;;6286112;22;20469;-89
2023/05/04 09:12:15;;;;;;;6.20;4.83;;;15.70;99.90;;;;;;6284880;22;20440;-87
2023/05/04 09:14:43;;;;;;;4.10;3.60;;;15.50;1.00;;;;;;6292324;22;20475;-88
2023/05/04 09:17:15;;;;;;;4.30;3.73;;;15.70;99.90;;;;;;6287880;22;20405;-88
2023/05/04 09:19:43;;;;;;;7.57;4.03;;;15.70;99.90;;;;;;6287219;22;20482;-87
2023/05/04 09:22:18;;;;;;;7.13;4.43;;;15.80;99.90;;;;;;6298176;22;20457;-87
2023/05/04 09:24:45;;;;;;;6.97;3.97;;;15.60;99.90;;;;;;6303946;22;20396;-83
2023/05/04 09:27:14;;;;;;;6.43;3.70;;;15.80;99.90;;;;;;6306122;22;20390;-85
2023/05/04 09:29:41;;;;;;;5.67;3.20;;;15.80;99.90;;;;;;6305593;22;20475;-85
2023/05/04 09:32:13;;;;;;;5.70;4.07;;;15.80;99.90;;;;;;6305526;22;20417;-88
2023/05/04 09:34:48;;;;;;;5.70;4.00;;;15.90;99.90;;;;;;6288970;22;20474;-87
2023/05/04 09:37:15;;;;;;;5.73;4.10;;;16.00;99.90;;;;;;6288625;22;20393;-88
2023/05/04 09:39:52;;;;;;;6.90;3.80;;;16.00;99.90;;;;;;6283264;22;20496;-88
2023/05/04 09:42:20;;;;;;;9.00;4.40;;;16.00;99.90;;;;;;6285468;22;20468;-88
2023/05/04 09:44:48;;;;;;;5.07;3.90;;;;;;;;;;6290627;22;20416;-88
2023/05/04 09:47:17;;;;;;;13.90;3.67;;;;;;;;;;6286072;22;20431;-88
2023/05/04 09:49:44;;;;;;;4.00;3.63;;;16.20;99.90;;;;;;6286549;22;20406;-88
2023/05/04 09:52:13;;;;;;;7.00;5.10;;;16.20;99.90;;;;;;6284744;22;20840;-87
2023/05/04 09:54:43;;;;;;;5.20;3.93;;;16.40;1.00;;;;;;6286640;22;20476;-87
2023/05/04 09:57:14;;;;;;;7.70;3.90;;;16.20;99.90;;;;;;6284341;22;20472;-87
2023/05/04 09:59:41;;;;;;;6.03;5.07;;;16.10;99.90;;;;;;6286011;22;20431;-88
2023/05/04 10:02:10;;;;;;;11.47;3.50;;;15.40;1.00;;;;;;6285582;22;20412;-88
2023/05/04 10:04:38;;;;;;;5.93;3.90;;;16.10;99.90;;;;;;6286223;22;20401;-87
2023/05/04 10:07:06;;;;;;;8.70;4.33;;;16.10;99.90;;;;;;6284024;22;20480;-88
2023/05/04 10:09:34;;;;;;;3.73;3.47;;;16.20;99.90;;;;;;6291141;22;20481;-86
2023/05/04 10:12:04;;;;;;;5.33;4.03;;;16.30;99.90;;;;;;6305504;22;20389;-85
2023/05/04 10:14:34;;;;;;;9.70;3.50;;;15.90;1.00;;;;;;6305270;22;20413;-85
2023/05/04 10:17:11;;;;;;;5.37;4.30;;;16.10;99.90;;;;;;6304514;22;20413;-87
2023/05/04 10:19:57;;;;;;;5.60;3.30;;;16.20;99.90;;;;;;6303328;22;20455;-88
2023/05/04 10:22:40;;;;;;;5.97;4.10;;;16.10;99.90;;;;;;6302189;22;20392;-88
2023/05/04 10:25:36;;;;;;;12.17;4.30;;;16.30;99.90;;;;;;6303790;22;20400;-86
2023/05/04 10:28:15;;;;;;;5.50;4.00;;;16.80;99.90;;;;;;6300914;22;20436;-85
2023/05/04 10:30:43;;;;;;;9.20;4.30;;;16.70;99.90;;;;;;6290740;22;20467;-86
2023/05/04 10:33:12;;;;;;;4.50;3.43;;;16.70;99.90;;;;;;6291691;22;20431;-86
2023/05/04 10:35:51;;;;;;;6.27;3.47;;;16.80;99.90;;;;;;6289866;22;20436;-86
2023/05/04 10:38:17;;;;;;;4.70;3.60;;;16.90;99.90;;;;;;6291864;22;20421;-85
2023/05/04 10:40:47;;;;;;;8.00;4.03;;;17.00;99.90;;;;;;6290645;22;20401;-86
2023/05/04 10:43:22;;;;;;;5.37;3.70;;;17.10;99.90;;;;;;6290991;22;20459;-85
2023/05/04 10:45:50;;;;;;;4.00;3.60;;;16.90;99.90;;;;;;6292040;22;20385;-84
2023/05/04 10:48:17;;;;;;;5.53;3.63;;;17.20;99.90;;;;;;6292175;22;20452;-86
2023/05/04 10:50:45;;;;;;;6.73;3.47;;;17.10;99.90;;;;;;6291389;22;20425;-86
2023/05/04 10:53:12;;;;;;;4.27;3.87;;;17.00;99.90;;;;;;6289705;22;20809;-86
2023/05/04 10:55:40;;;;;;;8.47;4.23;;;17.20;99.90;;;;;;6290352;22;20495;-85
2023/05/04 10:58:08;;;;;;;4.97;3.83;;;17.30;99.90;;;;;;6291225;22;20869;-86
2023/05/04 11:00:37;;;;;;;5.23;3.63;;;17.40;99.90;;;;;;6290658;22;20405;-86
2023/05/04 11:03:06;;;;;;;5.33;3.63;;;17.00;99.90;;;;;;6291443;22;20797;-86
2023/05/04 11:05:41;;;;;;;4.53;4.13;;;16.90;99.90;;;;;;6291190;22;20412;-86
2023/05/04 11:08:18;;;;;;;5.03;4.07;;;16.90;99.90;;;;;;6290024;22;20424;-86
2023/05/04 11:10:47;;;;;;;7.30;4.50;;;17.00;99.90;;;;;;6290124;22;20401;-86
2023/05/04 11:13:14;;;;;;;7.87;4.13;;;17.10;99.90;;;;;;6290711;22;20412;-86
2023/05/04 11:15:46;;;;;;;4.40;3.67;;;16.80;99.90;;;;;;6290272;22;20441;-86
2023/05/04 11:18:15;;;;;;;6.33;3.80;;;17.00;99.90;;;;;;6290687;22;20421;-86
2023/05/04 11:20:42;;;;;;;8.23;4.10;;;17.20;99.90;;;;;;6292214;22;20396;-86
2023/05/04 11:23:09;;;;;;;7.40;4.00;;;17.40;99.90;;;;;;6293180;22;20409;-85
2023/05/04 11:25:37;;;;;;;4.90;4.37;;;17.40;99.90;;;;;;6286153;22;20404;-85
2023/05/04 11:28:04;;;;;;;5.93;4.73;;;17.10;99.90;;;;;;6289784;22;20755;-84
2023/05/04 11:30:33;;;;;;;4.20;3.80;;;17.40;99.90;;;;;;6290392;22;20428;-86
2023/05/04 11:33:00;;;;;;;23.63;17.07;;;17.90;1.00;;;;;;6289759;22;20741;-86
2023/05/04 11:35:28;;;;;;;7.50;6.00;;;17.60;99.90;;;;;;6288850;22;20528;-86
2023/05/04 11:37:56;;;;;;;5.03;3.67;;;17.40;1.00;;;;;;6289424;22;20432;-85
2023/05/04 11:40:25;;;;;;;7.63;4.83;;;17.60;99.90;;;;;;6290776;22;20481;-86
2023/05/04 11:42:54;;;;;;;5.83;3.63;;;17.90;99.90;;;;;;6292246;22;20413;-86
2023/05/04 11:45:23;;;;;;;4.63;3.80;;;18.10;99.90;;;;;;6297019;22;20432;-85
2023/05/04 11:47:51;;;;;;;5.63;4.00;;;18.10;1.00;;;;;;6299056;22;20405;-84
2023/05/04 11:50:20;;;;;;;5.40;4.00;;;18.20;99.90;;;;;;6301896;22;20400;-87
2023/05/04 11:52:49;;;;;;;5.10;3.73;;;18.40;99.90;;;;;;6302088;22;20460;-85
2023/05/04 11:55:26;;;;;;;4.57;4.07;;;18.30;99.90;;;;;;6301050;22;20460;-85
2023/05/04 11:57:57;;;;;;;5.30;3.83;;;18.60;1.00;;;;;;6292485;22;20392;-86
2023/05/04 12:00:36;;;;;;;8.30;4.63;;;18.40;99.90;;;;;;6291773;22;20385;-86
2023/05/04 12:03:04;;;;;;;8.70;4.30;;;18.30;99.90;;;;;;6293217;22;20442;-85
2023/05/04 12:05:31;;;;;;;4.83;4.03;;;18.50;1.00;;;;;;6293049;22;20423;-87
2023/05/04 12:07:59;;;;;;;4.67;4.27;;;18.20;1.00;;;;;;6293222;22;20420;-86
2023/05/04 12:10:27;;;;;;;4.60;4.17;;;18.10;99.90;;;;;;6286416;22;20438;-85
2023/05/04 12:12:54;;;;;;;5.97;3.43;;;18.10;99.90;;;;;;6284731;22;20408;-85
2023/05/04 12:15:29;;;;;;;6.40;3.50;;;18.20;99.90;;;;;;6289669;22;20448;-86
2023/05/04 12:17:56;;;;;;;12.50;4.10;;;18.60;1.00;;;;;;6291641;22;20405;-84
2023/05/04 12:20:24;;;;;;;8.83;4.67;;;18.20;99.90;;;;;;6296467;22;20929;-86
2023/05/04 12:22:51;;;;;;;3.53;3.23;;;18.30;99.90;;;;;;6293658;22;20428;-86
2023/05/04 12:25:20;;;;;;;6.53;3.50;;;18.40;99.90;;;;;;6293642;22;20408;-85
2023/05/04 12:27:47;;;;;;;7.03;3.33;;;18.30;99.90;;;;;;6292913;22;20405;-87
2023/05/04 12:30:14;;;;;;;3.67;3.30;;;18.10;99.90;;;;;;6293075;22;20467;-87
2023/05/04 12:32:42;;;;;;;4.53;2.90;;;18.00;99.90;;;;;;6292992;22;20743;-86
2023/05/04 12:35:09;;;;;;;8.30;3.90;;;18.10;99.90;;;;;;6292303;22;20412;-86
2023/05/04 12:37:36;;;;;;;6.00;3.27;;;18.40;99.90;;;;;;6299895;22;20409;-85
2023/05/04 12:40:04;;;;;;;4.80;3.97;;;;;;;;;;6286011;22;20437;-86
2023/05/04 12:42:32;;;;;;;6.73;3.83;;;18.70;99.90;;;;;;6288791;22;20412;-86
2023/05/04 12:44:59;;;;;;;8.50;3.97;;;18.80;99.90;;;;;;6301872;22;20389;-86
2023/05/04 12:47:26;;;;;;;4.40;4.00;;;19.10;1.00;;;;;;6305687;22;20390;-85
2023/05/04 12:49:54;;;;;;;7.50;4.17;;;;;;;;;;6300378;22;20425;-86
2023/05/04 12:52:21;;;;;;;5.53;3.67;;;19.20;99.90;;;;;;6300065;22;20414;-84
2023/05/04 12:54:49;;;;;;;4.00;3.70;;;;;;;;;;6296945;22;20405;-86
2023/05/04 12:57:18;;;;;;;6.17;5.53;;;19.00;99.90;;;;;;6298386;22;20450;-86
2023/05/04 12:59:47;;;;;;;5.57;4.00;;;19.30;1.00;;;;;;6305768;22;20412;-85
2023/05/04 13:02:14;;;;;;;8.10;4.20;;;18.00;99.90;;;;;;6306295;22;20425;-84